sensor_id;sensor_type;location;lat;lon;timestamp;P1;durP1;ratioP1;P2;durP2;ratioP2
16472;SDS011;8347;52.486;13.432;2022-08-19T05:01:36;21.73;;;19.42;;
16472;SDS011;8347;52.486;13.432;2022-08-19T05:04:23;24.45;;;21.50;;
16472;SDS011;8347;52.486;13.432;2022-08-19T05:07:10;22.15;;;19.90;;
16472;SDS011;8347;52.486;13.432;2022-08-19T05:09:57;20.60;;;18.60;;
16472;SDS011;8347;52.486;13.432;2022-08-19T05:12:43;21.80;;;19.55;;
16472;SDS011;8347;52.486;13.432;2022-08-19T05:15:30;22.95;;;20.58;;
16472;SDS011;8347;52.486;13.432;2022-08-19T05:18:17;21.58;;;19.42;;
16472;SDS011;8347;52.486;13.432;2022-08-19T05:21:22;23.90;;;20.02;;
16472;SDS011;8347;52.486;13.432;2022-08-19T05:24:28;20.73;;;18.65;;
16472;SDS011;8347;52.486;13.432;2022-08-19T05:27:15;20.27;;;18.23;;
16472;SDS011;8347;52.486;13.432;2022-08-19T05:30:02;20.40;;;18.17;;
16472;SDS011;8347;52.486;13.432;2022-08-19T05:32:48;21.15;;;19.05;;
16472;SDS011;8347;52.486;13.432;2022-08-19T05:35:36;21.00;;;18.80;;
16472;SDS011;8347;52.486;13.432;2022-08-19T05:38:23;22.75;;;17.98;;
16472;SDS011;8347;52.486;13.432;2022-08-19T05:41:12;21.92;;;18.15;;
16472;SDS011;8347;52.486;13.432;2022-08-19T05:44:04;21.75;;;18.95;;
16472;SDS011;8347;52.486;13.432;2022-08-19T05:46:54;21.50;;;19.45;;
16472;SDS011;8347;52.486;13.432;2022-08-19T05:49:42;21.33;;;19.33;;
16472;SDS011;8347;52.486;13.432;2022-08-19T05:52:28;21.50;;;19.17;;
16472;SDS011;8347;52.486;13.432;2022-08-19T05:55:15;22.27;;;19.75;;
16472;SDS011;8347;52.486;13.432;2022-08-19T05:58:02;22.58;;;20.23;;
16472;SDS011;8347;52.486;13.432;2022-08-19T06:00:48;22.83;;;19.55;;
16472;SDS011;8347;52.486;13.432;2022-08-19T06:03:35;23.40;;;21.10;;
16472;SDS011;8347;52.486;13.432;2022-08-19T06:06:23;23.02;;;20.42;;
16472;SDS011;8347;52.486;13.432;2022-08-19T06:09:09;23.02;;;20.50;;
16472;SDS011;8347;52.486;13.432;2022-08-19T06:11:57;24.13;;;21.40;;
16472;SDS011;8347;52.486;13.432;2022-08-19T06:14:45;21.40;;;19.02;;
16472;SDS011;8347;52.486;13.432;2022-08-19T06:17:31;24.15;;;21.10;;
16472;SDS011;8347;52.486;13.432;2022-08-19T06:20:20;23.27;;;20.95;;
16472;SDS011;8347;52.486;13.432;2022-08-19T06:23:07;23.33;;;20.83;;
16472;SDS011;8347;52.486;13.432;2022-08-19T06:25:54;23.73;;;21.42;;
16472;SDS011;8347;52.486;13.432;2022-08-19T06:28:41;22.23;;;20.10;;
16472;SDS011;8347;52.486;13.432;2022-08-19T06:31:30;21.77;;;19.48;;
16472;SDS011;8347;52.486;13.432;2022-08-19T06:34:19;25.30;;;20.88;;
16472;SDS011;8347;52.486;13.432;2022-08-19T06:37:06;21.98;;;19.77;;
16472;SDS011;8347;52.486;13.432;2022-08-19T06:39:52;21.58;;;19.23;;
16472;SDS011;8347;52.486;13.432;2022-08-19T06:42:39;23.05;;;20.67;;
16472;SDS011;8347;52.486;13.432;2022-08-19T06:45:26;23.13;;;20.73;;
16472;SDS011;8347;52.486;13.432;2022-08-19T06:48:13;22.58;;;20.17;;
16472;SDS011;8347;52.486;13.432;2022-08-19T06:51:00;22.48;;;20.08;;
16472;SDS011;8347;52.486;13.432;2022-08-19T06:53:49;23.52;;;21.13;;
16472;SDS011;8347;52.486;13.432;2022-08-19T06:56:38;24.02;;;21.60;;
16472;SDS011;8347;52.486;13.432;2022-08-19T06:59:25;24.42;;;21.88;;
16472;SDS011;8347;52.486;13.432;2022-08-19T07:02:12;23.05;;;20.60;;
16472;SDS011;8347;52.486;13.432;2022-08-19T07:04:59;21.00;;;18.75;;
16472;SDS011;8347;52.486;13.432;2022-08-19T07:07:50;23.48;;;21.00;;
16472;SDS011;8347;52.486;13.432;2022-08-19T07:10:36;22.85;;;20.48;;
16472;SDS011;8347;52.486;13.432;2022-08-19T07:13:23;22.13;;;19.83;;
16472;SDS011;8347;52.486;13.432;2022-08-19T07:16:11;23.38;;;20.80;;
16472;SDS011;8347;52.486;13.432;2022-08-19T07:18:58;24.63;;;21.05;;
16472;SDS011;8347;52.486;13.432;2022-08-19T07:21:45;24.33;;;21.75;;
16472;SDS011;8347;52.486;13.432;2022-08-19T07:24:32;24.63;;;22.10;;
16472;SDS011;8347;52.486;13.432;2022-08-19T07:27:19;24.08;;;21.52;;
16472;SDS011;8347;52.486;13.432;2022-08-19T07:30:07;24.45;;;21.83;;
16472;SDS011;8347;52.486;13.432;2022-08-19T07:32:54;24.20;;;21.73;;
16472;SDS011;8347;52.486;13.432;2022-08-19T07:35:41;22.85;;;20.45;;
16472;SDS011;8347;52.486;13.432;2022-08-19T07:38:28;25.17;;;22.77;;
16472;SDS011;8347;52.486;13.432;2022-08-19T07:41:16;22.85;;;20.45;;
16472;SDS011;8347;52.486;13.432;2022-08-19T07:44:03;22.30;;;19.83;;
16472;SDS011;8347;52.486;13.432;2022-08-19T07:46:52;21.55;;;19.42;;
16472;SDS011;8347;52.486;13.432;2022-08-19T07:49:39;23.08;;;20.63;;
16472;SDS011;8347;52.486;13.432;2022-08-19T07:52:25;24.20;;;21.48;;
16472;SDS011;8347;52.486;13.432;2022-08-19T07:55:12;23.73;;;21.35;;
16472;SDS011;8347;52.486;13.432;2022-08-19T07:57:58;25.60;;;23.08;;
16472;SDS011;8347;52.486;13.432;2022-08-19T08:00:46;23.85;;;21.52;;
16472;SDS011;8347;52.486;13.432;2022-08-19T08:03:33;24.02;;;21.42;;
16472;SDS011;8347;52.486;13.432;2022-08-19T08:06:38;23.08;;;20.80;;
16472;SDS011;8347;52.486;13.432;2022-08-19T08:09:44;25.85;;;22.38;;
16472;SDS011;8347;52.486;13.432;2022-08-19T08:12:33;25.63;;;22.90;;
16472;SDS011;8347;52.486;13.432;2022-08-19T08:15:23;25.40;;;22.95;;
16472;SDS011;8347;52.486;13.432;2022-08-19T08:18:11;25.23;;;22.60;;
16472;SDS011;8347;52.486;13.432;2022-08-19T08:20:58;26.20;;;23.50;;
16472;SDS011;8347;52.486;13.432;2022-08-19T08:23:44;26.25;;;23.55;;
16472;SDS011;8347;52.486;13.432;2022-08-19T08:26:31;27.23;;;22.45;;
16472;SDS011;8347;52.486;13.432;2022-08-19T08:29:18;26.08;;;23.23;;
16472;SDS011;8347;52.486;13.432;2022-08-19T08:32:05;25.85;;;22.98;;
16472;SDS011;8347;52.486;13.432;2022-08-19T08:34:52;25.48;;;22.85;;
16472;SDS011;8347;52.486;13.432;2022-08-19T08:37:39;24.65;;;22.25;;
16472;SDS011;8347;52.486;13.432;2022-08-19T08:40:48;25.15;;;22.65;;
16472;SDS011;8347;52.486;13.432;2022-08-19T08:43:39;24.10;;;20.95;;
16472;SDS011;8347;52.486;13.432;2022-08-19T08:46:41;23.98;;;21.48;;
16472;SDS011;8347;52.486;13.432;2022-08-19T08:49:42;23.02;;;20.70;;
16472;SDS011;8347;52.486;13.432;2022-08-19T08:52:31;24.73;;;22.50;;
16472;SDS011;8347;52.486;13.432;2022-08-19T08:55:22;24.67;;;22.25;;
16472;SDS011;8347;52.486;13.432;2022-08-19T08:58:12;26.27;;;23.15;;
16472;SDS011;8347;52.486;13.432;2022-08-19T09:01:01;26.50;;;24.00;;
16472;SDS011;8347;52.486;13.432;2022-08-19T09:03:48;27.42;;;24.65;;
16472;SDS011;8347;52.486;13.432;2022-08-19T09:09:42;27.25;;;24.58;;
16472;SDS011;8347;52.486;13.432;2022-08-19T09:12:47;27.60;;;24.80;;
16472;SDS011;8347;52.486;13.432;2022-08-19T09:15:40;26.85;;;24.25;;
16472;SDS011;8347;52.486;13.432;2022-08-19T09:18:44;26.90;;;24.55;;
16472;SDS011;8347;52.486;13.432;2022-08-19T09:21:33;28.38;;;25.35;;
16472;SDS011;8347;52.486;13.432;2022-08-19T09:24:20;29.42;;;26.67;;
16472;SDS011;8347;52.486;13.432;2022-08-19T09:27:06;28.08;;;25.38;;
16472;SDS011;8347;52.486;13.432;2022-08-19T09:29:54;27.35;;;24.60;;
16472;SDS011;8347;52.486;13.432;2022-08-19T09:32:41;26.20;;;23.70;;
16472;SDS011;8347;52.486;13.432;2022-08-19T09:35:29;25.58;;;22.98;;
16472;SDS011;8347;52.486;13.432;2022-08-19T09:38:16;25.80;;;23.23;;
16472;SDS011;8347;52.486;13.432;2022-08-19T09:41:03;26.75;;;23.95;;
16472;SDS011;8347;52.486;13.432;2022-08-19T09:43:51;29.05;;;23.55;;
16472;SDS011;8347;52.486;13.432;2022-08-19T09:46:41;25.13;;;22.65;;
16472;SDS011;8347;52.486;13.432;2022-08-19T09:49:27;26.38;;;23.92;;
16472;SDS011;8347;52.486;13.432;2022-08-19T09:52:14;27.30;;;24.50;;
16472;SDS011;8347;52.486;13.432;2022-08-19T09:55:03;24.23;;;21.85;;
16472;SDS011;8347;52.486;13.432;2022-08-19T09:57:49;26.13;;;23.55;;
16472;SDS011;8347;52.486;13.432;2022-08-19T10:00:39;25.17;;;22.67;;
16472;SDS011;8347;52.486;13.432;2022-08-19T10:03:27;25.52;;;22.98;;
16472;SDS011;8347;52.486;13.432;2022-08-19T10:06:14;25.35;;;22.83;;
16472;SDS011;8347;52.486;13.432;2022-08-19T10:09:02;27.02;;;24.33;;
16472;SDS011;8347;52.486;13.432;2022-08-19T10:11:53;25.52;;;22.80;;
16472;SDS011;8347;52.486;13.432;2022-08-19T10:14:39;24.13;;;21.73;;
16472;SDS011;8347;52.486;13.432;2022-08-19T10:17:26;24.75;;;22.23;;
16472;SDS011;8347;52.486;13.432;2022-08-19T10:20:13;23.85;;;21.38;;
16472;SDS011;8347;52.486;13.432;2022-08-19T10:22:59;23.77;;;21.52;;
16472;SDS011;8347;52.486;13.432;2022-08-19T10:25:46;23.88;;;21.33;;
16472;SDS011;8347;52.486;13.432;2022-08-19T10:28:34;21.17;;;18.98;;
16472;SDS011;8347;52.486;13.432;2022-08-19T10:31:24;22.00;;;19.80;;
16472;SDS011;8347;52.486;13.432;2022-08-19T10:34:12;22.55;;;20.25;;
16472;SDS011;8347;52.486;13.432;2022-08-19T10:36:58;22.67;;;20.42;;
16472;SDS011;8347;52.486;13.432;2022-08-19T10:39:46;23.60;;;21.10;;
16472;SDS011;8347;52.486;13.432;2022-08-19T10:42:35;22.20;;;19.85;;
16472;SDS011;8347;52.486;13.432;2022-08-19T10:45:22;23.25;;;20.92;;
16472;SDS011;8347;52.486;13.432;2022-08-19T10:48:11;21.70;;;19.48;;
16472;SDS011;8347;52.486;13.432;2022-08-19T10:50:58;22.05;;;19.85;;
16472;SDS011;8347;52.486;13.432;2022-08-19T10:54:03;23.33;;;20.17;;
16472;SDS011;8347;52.486;13.432;2022-08-19T10:56:50;21.30;;;19.20;;
16472;SDS011;8347;52.486;13.432;2022-08-19T10:59:37;21.80;;;19.73;;
16472;SDS011;8347;52.486;13.432;2022-08-19T11:02:24;21.13;;;19.02;;
16472;SDS011;8347;52.486;13.432;2022-08-19T11:05:11;22.45;;;19.55;;
16472;SDS011;8347;52.486;13.432;2022-08-19T11:07:59;22.90;;;20.58;;
16472;SDS011;8347;52.486;13.432;2022-08-19T11:10:45;24.90;;;20.55;;
16472;SDS011;8347;52.486;13.432;2022-08-19T11:13:33;23.35;;;20.50;;
16472;SDS011;8347;52.486;13.432;2022-08-19T11:16:23;26.00;;;23.17;;
16472;SDS011;8347;52.486;13.432;2022-08-19T11:19:11;23.08;;;19.83;;
16472;SDS011;8347;52.486;13.432;2022-08-19T11:21:59;27.65;;;18.83;;
16472;SDS011;8347;52.486;13.432;2022-08-19T11:24:49;20.70;;;18.52;;
16472;SDS011;8347;52.486;13.432;2022-08-19T11:27:39;19.92;;;17.92;;
16472;SDS011;8347;52.486;13.432;2022-08-19T14:32:28;14.57;;;13.27;;
16472;SDS011;8347;52.486;13.432;2022-08-19T14:35:15;15.27;;;13.68;;
16472;SDS011;8347;52.486;13.432;2022-08-19T14:38:02;14.95;;;12.85;;
16472;SDS011;8347;52.486;13.432;2022-08-19T14:40:50;14.43;;;13.02;;
16472;SDS011;8347;52.486;13.432;2022-08-19T14:43:37;13.63;;;12.25;;
16472;SDS011;8347;52.486;13.432;2022-08-19T14:46:24;14.27;;;12.93;;
16472;SDS011;8347;52.486;13.432;2022-08-19T14:49:12;14.18;;;12.73;;
16472;SDS011;8347;52.486;13.432;2022-08-19T14:51:58;14.10;;;12.80;;
16472;SDS011;8347;52.486;13.432;2022-08-19T14:54:45;12.40;;;11.30;;
16472;SDS011;8347;52.486;13.432;2022-08-19T14:57:32;13.18;;;11.98;;
16472;SDS011;8347;52.486;13.432;2022-08-19T15:00:18;13.57;;;12.15;;
16472;SDS011;8347;52.486;13.432;2022-08-19T15:03:05;13.55;;;12.35;;
16472;SDS011;8347;52.486;13.432;2022-08-19T15:05:51;14.85;;;13.25;;
16472;SDS011;8347;52.486;13.432;2022-08-19T15:08:39;14.60;;;13.18;;
16472;SDS011;8347;52.486;13.432;2022-08-19T15:11:26;13.05;;;11.82;;
16472;SDS011;8347;52.486;13.432;2022-08-19T15:14:13;14.48;;;12.73;;
16472;SDS011;8347;52.486;13.432;2022-08-19T15:17:01;13.95;;;12.45;;
16472;SDS011;8347;52.486;13.432;2022-08-19T15:19:49;13.05;;;11.88;;
16472;SDS011;8347;52.486;13.432;2022-08-19T15:22:35;17.25;;;12.73;;
16472;SDS011;8347;52.486;13.432;2022-08-19T15:25:22;12.18;;;10.93;;
16472;SDS011;8347;52.486;13.432;2022-08-19T15:28:08;16.75;;;13.70;;
16472;SDS011;8347;52.486;13.432;2022-08-19T15:30:58;52.88;;;28.15;;
16472;SDS011;8347;52.486;13.432;2022-08-19T15:33:45;32.47;;;23.10;;
16472;SDS011;8347;52.486;13.432;2022-08-19T15:36:32;30.30;;;23.40;;
16472;SDS011;8347;52.486;13.432;2022-08-19T15:39:19;17.42;;;15.23;;
16472;SDS011;8347;52.486;13.432;2022-08-19T15:42:06;16.00;;;12.07;;
16472;SDS011;8347;52.486;13.432;2022-08-19T15:44:53;12.98;;;11.60;;
16472;SDS011;8347;52.486;13.432;2022-08-19T15:47:40;14.02;;;12.45;;
16472;SDS011;8347;52.486;13.432;2022-08-19T15:50:27;16.45;;;13.00;;
16472;SDS011;8347;52.486;13.432;2022-08-19T15:53:16;11.93;;;10.65;;
16472;SDS011;8347;52.486;13.432;2022-08-19T15:56:03;11.50;;;10.35;;
16472;SDS011;8347;52.486;13.432;2022-08-19T15:58:49;11.15;;;10.05;;
16472;SDS011;8347;52.486;13.432;2022-08-19T16:02:09;11.13;;;10.18;;
16472;SDS011;8347;52.486;13.432;2022-08-19T16:05:15;17.90;;;13.90;;
16472;SDS011;8347;52.486;13.432;2022-08-19T16:08:22;12.52;;;11.35;;
16472;SDS011;8347;52.486;13.432;2022-08-19T16:11:11;12.80;;;11.60;;
16472;SDS011;8347;52.486;13.432;2022-08-19T16:13:59;13.77;;;12.35;;
16472;SDS011;8347;52.486;13.432;2022-08-19T16:16:46;12.13;;;10.35;;
16472;SDS011;8347;52.486;13.432;2022-08-19T16:19:32;11.77;;;10.60;;
16472;SDS011;8347;52.486;13.432;2022-08-19T16:22:19;12.60;;;11.35;;
16472;SDS011;8347;52.486;13.432;2022-08-19T16:25:07;12.55;;;11.18;;
16472;SDS011;8347;52.486;13.432;2022-08-19T16:27:55;12.50;;;11.27;;
16472;SDS011;8347;52.486;13.432;2022-08-19T16:30:41;15.10;;;13.30;;
16472;SDS011;8347;52.486;13.432;2022-08-19T16:33:28;14.57;;;13.07;;
16472;SDS011;8347;52.486;13.432;2022-08-19T16:36:15;14.48;;;13.02;;
16472;SDS011;8347;52.486;13.432;2022-08-19T16:39:02;14.70;;;13.23;;
16472;SDS011;8347;52.486;13.432;2022-08-19T16:41:49;14.90;;;13.15;;
16472;SDS011;8347;52.486;13.432;2022-08-19T16:44:39;13.90;;;12.55;;
16472;SDS011;8347;52.486;13.432;2022-08-19T16:47:26;13.35;;;12.02;;
16472;SDS011;8347;52.486;13.432;2022-08-19T16:50:13;16.55;;;13.63;;
16472;SDS011;8347;52.486;13.432;2022-08-19T16:52:59;13.90;;;12.63;;
16472;SDS011;8347;52.486;13.432;2022-08-19T16:55:47;14.35;;;12.73;;
16472;SDS011;8347;52.486;13.432;2022-08-19T16:58:38;13.48;;;11.93;;
16472;SDS011;8347;52.486;13.432;2022-08-19T17:01:26;14.13;;;12.27;;
16472;SDS011;8347;52.486;13.432;2022-08-19T17:04:13;14.77;;;12.38;;
16472;SDS011;8347;52.486;13.432;2022-08-19T17:06:59;12.77;;;11.52;;
16472;SDS011;8347;52.486;13.432;2022-08-19T17:09:46;13.35;;;12.05;;
16472;SDS011;8347;52.486;13.432;2022-08-19T17:12:33;12.15;;;11.05;;
16472;SDS011;8347;52.486;13.432;2022-08-19T17:15:19;12.70;;;11.40;;
16472;SDS011;8347;52.486;13.432;2022-08-19T17:18:06;14.82;;;13.32;;
16472;SDS011;8347;52.486;13.432;2022-08-19T17:20:53;11.77;;;10.57;;
16472;SDS011;8347;52.486;13.432;2022-08-19T17:23:41;14.57;;;10.95;;
16472;SDS011;8347;52.486;13.432;2022-08-19T17:26:28;10.98;;;9.85;;
16472;SDS011;8347;52.486;13.432;2022-08-19T17:29:15;12.50;;;11.30;;
16472;SDS011;8347;52.486;13.432;2022-08-19T17:32:02;11.15;;;10.18;;
16472;SDS011;8347;52.486;13.432;2022-08-19T17:34:50;11.13;;;10.00;;
16472;SDS011;8347;52.486;13.432;2022-08-19T17:37:38;12.48;;;11.27;;
16472;SDS011;8347;52.486;13.432;2022-08-19T17:40:25;11.20;;;10.20;;
16472;SDS011;8347;52.486;13.432;2022-08-19T17:43:12;11.85;;;10.75;;
16472;SDS011;8347;52.486;13.432;2022-08-19T17:45:59;12.68;;;11.43;;
16472;SDS011;8347;52.486;13.432;2022-08-19T17:48:48;12.25;;;10.95;;
16472;SDS011;8347;52.486;13.432;2022-08-19T17:51:38;10.55;;;9.45;;
16472;SDS011;8347;52.486;13.432;2022-08-19T17:54:25;9.98;;;9.07;;
16472;SDS011;8347;52.486;13.432;2022-08-19T17:57:11;10.43;;;9.43;;
16472;SDS011;8347;52.486;13.432;2022-08-19T17:59:58;9.93;;;9.00;;
16472;SDS011;8347;52.486;13.432;2022-08-19T18:02:46;10.13;;;8.63;;
16472;SDS011;8347;52.486;13.432;2022-08-19T18:05:34;9.32;;;8.52;;
16472;SDS011;8347;52.486;13.432;2022-08-19T18:08:25;10.95;;;9.52;;
16472;SDS011;8347;52.486;13.432;2022-08-19T18:11:12;10.00;;;9.05;;
16472;SDS011;8347;52.486;13.432;2022-08-19T18:13:58;11.70;;;10.50;;
16472;SDS011;8347;52.486;13.432;2022-08-19T18:16:45;9.93;;;8.70;;
16472;SDS011;8347;52.486;13.432;2022-08-19T18:19:32;9.52;;;8.63;;
16472;SDS011;8347;52.486;13.432;2022-08-19T18:22:28;11.02;;;8.55;;
16472;SDS011;8347;52.486;13.432;2022-08-19T18:25:21;10.88;;;9.77;;
16472;SDS011;8347;52.486;13.432;2022-08-19T18:28:10;10.18;;;9.18;;
16472;SDS011;8347;52.486;13.432;2022-08-19T18:30:56;10.07;;;9.05;;
16472;SDS011;8347;52.486;13.432;2022-08-19T18:33:43;11.27;;;9.48;;
16472;SDS011;8347;52.486;13.432;2022-08-19T18:36:30;10.52;;;8.55;;
16472;SDS011;8347;52.486;13.432;2022-08-19T18:39:18;11.43;;;9.23;;
16472;SDS011;8347;52.486;13.432;2022-08-19T18:42:23;9.80;;;8.80;;
16472;SDS011;8347;52.486;13.432;2022-08-19T18:45:29;9.20;;;8.30;;
16472;SDS011;8347;52.486;13.432;2022-08-19T18:48:35;9.73;;;8.80;;
16472;SDS011;8347;52.486;13.432;2022-08-19T18:51:41;10.55;;;9.50;;
16472;SDS011;8347;52.486;13.432;2022-08-19T18:54:29;9.50;;;8.65;;
16472;SDS011;8347;52.486;13.432;2022-08-19T18:57:15;9.60;;;8.73;;
16472;SDS011;8347;52.486;13.432;2022-08-19T19:00:03;12.25;;;10.63;;
16472;SDS011;8347;52.486;13.432;2022-08-19T19:02:51;12.43;;;10.55;;
16472;SDS011;8347;52.486;13.432;2022-08-19T19:05:39;11.30;;;10.07;;
16472;SDS011;8347;52.486;13.432;2022-08-19T19:08:25;12.57;;;11.38;;
16472;SDS011;8347;52.486;13.432;2022-08-19T19:11:13;12.50;;;11.27;;
16472;SDS011;8347;52.486;13.432;2022-08-19T19:14:04;13.43;;;12.02;;
16472;SDS011;8347;52.486;13.432;2022-08-19T19:16:55;12.90;;;11.68;;
16472;SDS011;8347;52.486;13.432;2022-08-19T19:19:43;15.25;;;12.32;;
16472;SDS011;8347;52.486;13.432;2022-08-19T19:22:30;12.82;;;11.63;;
16472;SDS011;8347;52.486;13.432;2022-08-19T19:25:17;14.57;;;13.13;;
16472;SDS011;8347;52.486;13.432;2022-08-19T19:28:04;13.13;;;11.55;;
16472;SDS011;8347;52.486;13.432;2022-08-19T19:30:52;15.25;;;13.65;;
16472;SDS011;8347;52.486;13.432;2022-08-19T19:33:43;16.17;;;12.85;;
16472;SDS011;8347;52.486;13.432;2022-08-19T19:36:30;18.40;;;15.43;;
16472;SDS011;8347;52.486;13.432;2022-08-19T19:39:17;17.10;;;15.32;;
16472;SDS011;8347;52.486;13.432;2022-08-19T19:42:06;17.10;;;15.40;;
16472;SDS011;8347;52.486;13.432;2022-08-19T19:44:54;15.23;;;13.73;;
16472;SDS011;8347;52.486;13.432;2022-08-19T19:47:41;15.20;;;13.57;;
16472;SDS011;8347;52.486;13.432;2022-08-19T19:50:34;18.25;;;16.33;;
16472;SDS011;8347;52.486;13.432;2022-08-19T19:53:24;18.48;;;16.67;;
16472;SDS011;8347;52.486;13.432;2022-08-19T19:56:12;18.42;;;16.58;;
16472;SDS011;8347;52.486;13.432;2022-08-19T19:58:58;19.98;;;17.55;;
16472;SDS011;8347;52.486;13.432;2022-08-19T20:01:48;19.63;;;17.77;;
16472;SDS011;8347;52.486;13.432;2022-08-19T20:04:35;18.30;;;16.45;;
16472;SDS011;8347;52.486;13.432;2022-08-19T20:07:22;19.70;;;16.42;;
16472;SDS011;8347;52.486;13.432;2022-08-19T20:10:28;21.33;;;19.17;;
16472;SDS011;8347;52.486;13.432;2022-08-19T20:13:16;20.42;;;18.42;;
16472;SDS011;8347;52.486;13.432;2022-08-19T20:16:03;19.17;;;16.90;;
16472;SDS011;8347;52.486;13.432;2022-08-19T20:18:50;18.42;;;16.63;;
16472;SDS011;8347;52.486;13.432;2022-08-19T20:21:37;18.13;;;16.20;;
16472;SDS011;8347;52.486;13.432;2022-08-19T20:24:29;18.60;;;16.60;;
16472;SDS011;8347;52.486;13.432;2022-08-19T20:27:17;18.67;;;16.77;;
16472;SDS011;8347;52.486;13.432;2022-08-19T20:30:05;18.52;;;16.67;;
16472;SDS011;8347;52.486;13.432;2022-08-19T20:32:53;19.00;;;17.10;;
16472;SDS011;8347;52.486;13.432;2022-08-19T20:35:41;19.77;;;17.83;;
16472;SDS011;8347;52.486;13.432;2022-08-19T20:38:29;19.60;;;17.55;;
16472;SDS011;8347;52.486;13.432;2022-08-19T20:41:19;19.52;;;17.30;;
16472;SDS011;8347;52.486;13.432;2022-08-19T20:44:06;20.20;;;18.23;;
16472;SDS011;8347;52.486;13.432;2022-08-19T20:46:52;19.58;;;17.27;;
16472;SDS011;8347;52.486;13.432;2022-08-19T20:49:39;18.88;;;16.92;;
16472;SDS011;8347;52.486;13.432;2022-08-19T20:52:26;19.83;;;17.60;;
16472;SDS011;8347;52.486;13.432;2022-08-19T20:55:12;20.48;;;18.13;;
16472;SDS011;8347;52.486;13.432;2022-08-19T20:57:59;20.52;;;17.25;;
16472;SDS011;8347;52.486;13.432;2022-08-19T21:00:46;21.80;;;17.25;;
16472;SDS011;8347;52.486;13.432;2022-08-19T21:03:34;19.45;;;17.45;;
16472;SDS011;8347;52.486;13.432;2022-08-19T21:06:21;19.40;;;17.27;;
16472;SDS011;8347;52.486;13.432;2022-08-19T21:09:08;17.65;;;15.80;;
16472;SDS011;8347;52.486;13.432;2022-08-19T21:11:55;16.30;;;14.57;;
16472;SDS011;8347;52.486;13.432;2022-08-19T21:14:41;16.50;;;14.38;;
16472;SDS011;8347;52.486;13.432;2022-08-19T21:17:28;16.83;;;13.07;;
16472;SDS011;8347;52.486;13.432;2022-08-19T21:20:14;16.13;;;13.13;;
16472;SDS011;8347;52.486;13.432;2022-08-19T21:23:02;15.43;;;13.82;;
16472;SDS011;8347;52.486;13.432;2022-08-19T21:25:50;16.45;;;14.75;;
16472;SDS011;8347;52.486;13.432;2022-08-19T21:28:37;16.33;;;14.40;;
16472;SDS011;8347;52.486;13.432;2022-08-19T21:31:24;16.63;;;14.88;;
16472;SDS011;8347;52.486;13.432;2022-08-19T21:34:11;15.30;;;13.63;;
16472;SDS011;8347;52.486;13.432;2022-08-19T21:36:57;14.02;;;12.52;;
16472;SDS011;8347;52.486;13.432;2022-08-19T21:39:44;14.38;;;12.98;;
16472;SDS011;8347;52.486;13.432;2022-08-19T21:42:31;15.20;;;13.70;;
16472;SDS011;8347;52.486;13.432;2022-08-19T21:45:17;11.98;;;10.75;;
16472;SDS011;8347;52.486;13.432;2022-08-19T21:48:05;15.15;;;10.57;;
16472;SDS011;8347;52.486;13.432;2022-08-19T21:50:52;12.05;;;10.80;;
16472;SDS011;8347;52.486;13.432;2022-08-19T21:53:39;11.82;;;10.63;;
16472;SDS011;8347;52.486;13.432;2022-08-19T21:56:26;12.77;;;11.07;;
16472;SDS011;8347;52.486;13.432;2022-08-19T21:59:12;14.02;;;11.55;;
16472;SDS011;8347;52.486;13.432;2022-08-19T22:01:59;12.73;;;11.52;;
16472;SDS011;8347;52.486;13.432;2022-08-19T22:04:46;12.75;;;11.45;;
16472;SDS011;8347;52.486;13.432;2022-08-19T22:07:33;15.10;;;11.40;;
16472;SDS011;8347;52.486;13.432;2022-08-19T22:10:21;14.07;;;12.68;;
16472;SDS011;8347;52.486;13.432;2022-08-19T22:13:08;13.90;;;12.55;;
16472;SDS011;8347;52.486;13.432;2022-08-19T22:15:55;17.80;;;13.15;;
16472;SDS011;8347;52.486;13.432;2022-08-19T22:18:41;16.45;;;14.75;;
16472;SDS011;8347;52.486;13.432;2022-08-19T22:21:29;17.23;;;15.52;;
16472;SDS011;8347;52.486;13.432;2022-08-19T22:24:15;23.75;;;18.10;;
16472;SDS011;8347;52.486;13.432;2022-08-19T22:27:01;20.88;;;18.67;;
16472;SDS011;8347;52.486;13.432;2022-08-19T22:29:50;23.63;;;21.13;;
16472;SDS011;8347;52.486;13.432;2022-08-19T22:32:37;24.52;;;21.92;;
16472;SDS011;8347;52.486;13.432;2022-08-19T22:35:23;20.67;;;18.45;;
16472;SDS011;8347;52.486;13.432;2022-08-19T22:38:10;20.75;;;18.52;;
16472;SDS011;8347;52.486;13.432;2022-08-19T22:40:58;22.05;;;19.65;;
16472;SDS011;8347;52.486;13.432;2022-08-19T22:43:45;20.90;;;18.73;;
16472;SDS011;8347;52.486;13.432;2022-08-19T22:46:33;19.83;;;17.83;;
16472;SDS011;8347;52.486;13.432;2022-08-19T22:49:19;22.17;;;19.88;;
16472;SDS011;8347;52.486;13.432;2022-08-19T22:52:06;20.50;;;18.40;;
16472;SDS011;8347;52.486;13.432;2022-08-19T22:55:05;20.90;;;18.58;;
16472;SDS011;8347;52.486;13.432;2022-08-19T22:57:52;19.88;;;17.77;;
16472;SDS011;8347;52.486;13.432;2022-08-19T23:00:39;23.55;;;19.33;;
16472;SDS011;8347;52.486;13.432;2022-08-19T23:03:25;20.73;;;18.58;;
16472;SDS011;8347;52.486;13.432;2022-08-19T23:06:12;21.55;;;19.25;;
16472;SDS011;8347;52.486;13.432;2022-08-19T23:08:59;20.75;;;18.10;;
16472;SDS011;8347;52.486;13.432;2022-08-19T23:11:46;20.27;;;17.98;;
16472;SDS011;8347;52.486;13.432;2022-08-19T23:14:32;20.42;;;18.33;;
16472;SDS011;8347;52.486;13.432;2022-08-19T23:17:21;20.13;;;17.33;;
16472;SDS011;8347;52.486;13.432;2022-08-19T23:20:08;18.58;;;16.65;;
16472;SDS011;8347;52.486;13.432;2022-08-19T23:22:55;19.25;;;17.23;;
16472;SDS011;8347;52.486;13.432;2022-08-19T23:25:42;19.40;;;17.35;;
16472;SDS011;8347;52.486;13.432;2022-08-19T23:28:28;21.55;;;18.95;;
16472;SDS011;8347;52.486;13.432;2022-08-19T23:31:34;19.88;;;17.08;;
16472;SDS011;8347;52.486;13.432;2022-08-19T23:34:21;19.38;;;16.45;;
16472;SDS011;8347;52.486;13.432;2022-08-19T23:37:07;18.63;;;16.70;;
16472;SDS011;8347;52.486;13.432;2022-08-19T23:39:53;17.67;;;15.98;;
16472;SDS011;8347;52.486;13.432;2022-08-19T23:42:40;18.67;;;16.38;;
16472;SDS011;8347;52.486;13.432;2022-08-19T23:45:27;17.05;;;15.25;;
16472;SDS011;8347;52.486;13.432;2022-08-19T23:48:15;18.80;;;16.65;;
16472;SDS011;8347;52.486;13.432;2022-08-19T23:51:02;17.85;;;16.05;;
16472;SDS011;8347;52.486;13.432;2022-08-19T23:53:49;17.05;;;15.35;;
16472;SDS011;8347;52.486;13.432;2022-08-19T23:56:36;18.85;;;16.85;;
16472;SDS011;8347;52.486;13.432;2022-08-19T23:59:22;18.40;;;14.95;;
